sensor_id;sensor_type;location;lat;lon;timestamp;temperature;humidity
33105;DHT22;19476;51.448;6.674;2024-03-02T00:00:05;13.20;47.10
33105;DHT22;19476;51.448;6.674;2024-03-02T00:05:52;13.30;47.60
33105;DHT22;19476;51.448;6.674;2024-03-02T00:08:25;13.30;47.30
33105;DHT22;19476;51.448;6.674;2024-03-02T00:17:56;13.20;47.80
33105;DHT22;19476;51.448;6.674;2024-03-02T00:20:23;13.20;48.00
33105;DHT22;19476;51.448;6.674;2024-03-02T00:23:20;13.20;47.70
33105;DHT22;19476;51.448;6.674;2024-03-02T00:26:19;13.20;48.10
33105;DHT22;19476;51.448;6.674;2024-03-02T00:28:48;13.20;48.20
33105;DHT22;19476;51.448;6.674;2024-03-02T00:34:29;13.20;48.20
33105;DHT22;19476;51.448;6.674;2024-03-02T00:36:58;13.20;48.00
33105;DHT22;19476;51.448;6.674;2024-03-02T00:39:25;13.20;48.10
33105;DHT22;19476;51.448;6.674;2024-03-02T00:41:51;13.20;48.00
33105;DHT22;19476;51.448;6.674;2024-03-02T00:44:19;13.20;48.10
33105;DHT22;19476;51.448;6.674;2024-03-02T00:46:46;13.30;48.20
33105;DHT22;19476;51.448;6.674;2024-03-02T00:51:46;13.30;48.20
33105;DHT22;19476;51.448;6.674;2024-03-02T00:54:14;13.30;48.10
33105;DHT22;19476;51.448;6.674;2024-03-02T00:56:41;13.30;48.00
33105;DHT22;19476;51.448;6.674;2024-03-02T00:59:07;13.40;48.00
33105;DHT22;19476;51.448;6.674;2024-03-02T01:01:34;13.40;47.90
33105;DHT22;19476;51.448;6.674;2024-03-02T01:04:00;13.40;47.90
33105;DHT22;19476;51.448;6.674;2024-03-02T01:06:26;13.50;47.90
33105;DHT22;19476;51.448;6.674;2024-03-02T01:08:51;13.50;47.90
33105;DHT22;19476;51.448;6.674;2024-03-02T01:11:17;13.50;47.80
33105;DHT22;19476;51.448;6.674;2024-03-02T01:13:47;13.50;47.80
33105;DHT22;19476;51.448;6.674;2024-03-02T01:16:13;13.50;47.90
33105;DHT22;19476;51.448;6.674;2024-03-02T01:18:39;13.50;47.80
33105;DHT22;19476;51.448;6.674;2024-03-02T01:21:05;13.50;47.80
33105;DHT22;19476;51.448;6.674;2024-03-02T01:23:30;13.50;47.80
33105;DHT22;19476;51.448;6.674;2024-03-02T01:25:56;13.60;47.80
33105;DHT22;19476;51.448;6.674;2024-03-02T01:28:22;13.60;47.90
33105;DHT22;19476;51.448;6.674;2024-03-02T01:30:48;13.60;47.70
33105;DHT22;19476;51.448;6.674;2024-03-02T01:33:14;13.60;47.70
33105;DHT22;19476;51.448;6.674;2024-03-02T01:35:41;13.60;47.70
33105;DHT22;19476;51.448;6.674;2024-03-02T01:38:06;13.60;47.60
33105;DHT22;19476;51.448;6.674;2024-03-02T01:40:34;13.60;47.60
33105;DHT22;19476;51.448;6.674;2024-03-02T01:43:00;13.60;47.60
33105;DHT22;19476;51.448;6.674;2024-03-02T01:45:25;13.60;47.50
33105;DHT22;19476;51.448;6.674;2024-03-02T01:47:52;13.60;47.40
33105;DHT22;19476;51.448;6.674;2024-03-02T01:50:28;13.60;47.40
33105;DHT22;19476;51.448;6.674;2024-03-02T01:52:55;13.60;47.60
33105;DHT22;19476;51.448;6.674;2024-03-02T01:55:21;13.70;47.40
33105;DHT22;19476;51.448;6.674;2024-03-02T01:57:47;13.70;47.40
33105;DHT22;19476;51.448;6.674;2024-03-02T02:00:14;13.70;47.40
33105;DHT22;19476;51.448;6.674;2024-03-02T02:02:40;13.70;47.40
33105;DHT22;19476;51.448;6.674;2024-03-02T02:05:06;13.70;47.30
33105;DHT22;19476;51.448;6.674;2024-03-02T02:07:32;13.70;47.40
33105;DHT22;19476;51.448;6.674;2024-03-02T02:09:58;13.80;47.40
33105;DHT22;19476;51.448;6.674;2024-03-02T02:12:24;13.80;47.40
33105;DHT22;19476;51.448;6.674;2024-03-02T02:14:50;13.80;47.30
33105;DHT22;19476;51.448;6.674;2024-03-02T02:17:16;13.80;47.20
33105;DHT22;19476;51.448;6.674;2024-03-02T02:19:42;13.90;47.20
33105;DHT22;19476;51.448;6.674;2024-03-02T02:22:11;13.90;47.20
33105;DHT22;19476;51.448;6.674;2024-03-02T02:24:40;13.90;47.20
33105;DHT22;19476;51.448;6.674;2024-03-02T02:27:08;13.90;47.00
33105;DHT22;19476;51.448;6.674;2024-03-02T02:29:34;13.90;47.10
33105;DHT22;19476;51.448;6.674;2024-03-02T02:31:59;13.90;47.00
33105;DHT22;19476;51.448;6.674;2024-03-02T02:34:25;13.90;47.00
33105;DHT22;19476;51.448;6.674;2024-03-02T02:36:51;13.90;47.00
33105;DHT22;19476;51.448;6.674;2024-03-02T02:39:18;13.90;47.00
33105;DHT22;19476;51.448;6.674;2024-03-02T02:41:45;13.90;47.00
33105;DHT22;19476;51.448;6.674;2024-03-02T02:44:11;14.00;47.00
33105;DHT22;19476;51.448;6.674;2024-03-02T02:46:39;13.90;46.90
33105;DHT22;19476;51.448;6.674;2024-03-02T02:49:05;14.00;47.00
33105;DHT22;19476;51.448;6.674;2024-03-02T02:51:30;14.00;46.90
33105;DHT22;19476;51.448;6.674;2024-03-02T02:53:56;14.00;46.90
33105;DHT22;19476;51.448;6.674;2024-03-02T02:56:22;14.00;46.90
33105;DHT22;19476;51.448;6.674;2024-03-02T02:58:48;14.00;46.90
33105;DHT22;19476;51.448;6.674;2024-03-02T03:01:15;14.00;46.90
33105;DHT22;19476;51.448;6.674;2024-03-02T03:03:43;14.00;46.90
33105;DHT22;19476;51.448;6.674;2024-03-02T03:06:10;14.00;46.90
33105;DHT22;19476;51.448;6.674;2024-03-02T03:08:36;14.00;46.90
33105;DHT22;19476;51.448;6.674;2024-03-02T03:11:02;14.00;46.90
33105;DHT22;19476;51.448;6.674;2024-03-02T03:13:28;14.00;46.90
33105;DHT22;19476;51.448;6.674;2024-03-02T03:15:54;14.10;47.00
33105;DHT22;19476;51.448;6.674;2024-03-02T03:18:19;14.10;46.90
33105;DHT22;19476;51.448;6.674;2024-03-02T03:20:45;14.10;46.90
33105;DHT22;19476;51.448;6.674;2024-03-02T03:23:11;14.10;46.90
33105;DHT22;19476;51.448;6.674;2024-03-02T03:25:43;14.10;46.90
33105;DHT22;19476;51.448;6.674;2024-03-02T03:28:09;14.10;47.00
33105;DHT22;19476;51.448;6.674;2024-03-02T03:30:38;14.10;47.00
33105;DHT22;19476;51.448;6.674;2024-03-02T03:33:04;14.20;47.00
33105;DHT22;19476;51.448;6.674;2024-03-02T03:35:31;14.20;47.00
33105;DHT22;19476;51.448;6.674;2024-03-02T03:37:57;14.20;46.80
33105;DHT22;19476;51.448;6.674;2024-03-02T03:40:23;14.20;46.80
33105;DHT22;19476;51.448;6.674;2024-03-02T03:42:49;14.20;46.80
33105;DHT22;19476;51.448;6.674;2024-03-02T03:45:16;14.20;46.70
33105;DHT22;19476;51.448;6.674;2024-03-02T03:47:41;14.20;46.80
33105;DHT22;19476;51.448;6.674;2024-03-02T03:50:07;14.10;46.70
33105;DHT22;19476;51.448;6.674;2024-03-02T03:52:33;14.10;46.80
33105;DHT22;19476;51.448;6.674;2024-03-02T03:54:59;14.20;46.90
33105;DHT22;19476;51.448;6.674;2024-03-02T03:57:26;14.10;47.00
33105;DHT22;19476;51.448;6.674;2024-03-02T03:59:52;14.10;47.00
33105;DHT22;19476;51.448;6.674;2024-03-02T04:02:18;14.10;47.10
33105;DHT22;19476;51.448;6.674;2024-03-02T04:04:43;14.10;47.10
33105;DHT22;19476;51.448;6.674;2024-03-02T04:07:09;14.10;47.20
33105;DHT22;19476;51.448;6.674;2024-03-02T04:09:35;14.10;47.30
33105;DHT22;19476;51.448;6.674;2024-03-02T04:12:01;14.10;47.30
33105;DHT22;19476;51.448;6.674;2024-03-02T04:14:26;14.10;47.30
33105;DHT22;19476;51.448;6.674;2024-03-02T04:16:52;14.10;47.40
33105;DHT22;19476;51.448;6.674;2024-03-02T04:19:18;14.10;47.50
33105;DHT22;19476;51.448;6.674;2024-03-02T04:21:44;14.10;47.50
33105;DHT22;19476;51.448;6.674;2024-03-02T04:24:09;14.10;47.60
33105;DHT22;19476;51.448;6.674;2024-03-02T04:26:35;14.10;47.60
33105;DHT22;19476;51.448;6.674;2024-03-02T04:29:01;14.10;47.60
33105;DHT22;19476;51.448;6.674;2024-03-02T04:31:27;14.10;47.70
33105;DHT22;19476;51.448;6.674;2024-03-02T04:33:53;14.10;47.80
33105;DHT22;19476;51.448;6.674;2024-03-02T04:36:19;14.10;47.90
33105;DHT22;19476;51.448;6.674;2024-03-02T04:38:46;14.10;48.00
33105;DHT22;19476;51.448;6.674;2024-03-02T04:41:12;14.10;48.00
33105;DHT22;19476;51.448;6.674;2024-03-02T04:43:37;14.10;48.00
33105;DHT22;19476;51.448;6.674;2024-03-02T04:46:04;14.10;48.10
33105;DHT22;19476;51.448;6.674;2024-03-02T04:48:31;14.10;48.20
33105;DHT22;19476;51.448;6.674;2024-03-02T04:50:56;14.10;48.20
33105;DHT22;19476;51.448;6.674;2024-03-02T04:53:22;14.10;48.20
33105;DHT22;19476;51.448;6.674;2024-03-02T04:55:48;14.10;48.10
33105;DHT22;19476;51.448;6.674;2024-03-02T04:58:19;14.10;48.30
33105;DHT22;19476;51.448;6.674;2024-03-02T05:00:45;14.00;48.10
33105;DHT22;19476;51.448;6.674;2024-03-02T05:03:12;14.10;48.20
33105;DHT22;19476;51.448;6.674;2024-03-02T05:05:39;14.10;48.30
33105;DHT22;19476;51.448;6.674;2024-03-02T05:08:04;14.10;48.30
33105;DHT22;19476;51.448;6.674;2024-03-02T05:10:30;14.10;48.20
33105;DHT22;19476;51.448;6.674;2024-03-02T05:12:56;14.10;48.20
33105;DHT22;19476;51.448;6.674;2024-03-02T05:15:25;14.10;48.10
33105;DHT22;19476;51.448;6.674;2024-03-02T05:17:50;14.20;48.10
33105;DHT22;19476;51.448;6.674;2024-03-02T05:20:16;14.20;48.00
33105;DHT22;19476;51.448;6.674;2024-03-02T05:22:42;14.20;47.90
33105;DHT22;19476;51.448;6.674;2024-03-02T05:25:08;14.20;47.90
33105;DHT22;19476;51.448;6.674;2024-03-02T05:27:37;14.20;47.70
33105;DHT22;19476;51.448;6.674;2024-03-02T05:30:04;14.20;47.60
33105;DHT22;19476;51.448;6.674;2024-03-02T05:32:32;14.20;47.60
33105;DHT22;19476;51.448;6.674;2024-03-02T05:34:57;14.20;47.50
33105;DHT22;19476;51.448;6.674;2024-03-02T05:37:23;14.20;47.50
33105;DHT22;19476;51.448;6.674;2024-03-02T05:39:49;14.20;47.50
33105;DHT22;19476;51.448;6.674;2024-03-02T05:42:15;14.10;47.40
33105;DHT22;19476;51.448;6.674;2024-03-02T05:44:42;14.10;47.40
33105;DHT22;19476;51.448;6.674;2024-03-02T05:47:07;14.10;47.40
33105;DHT22;19476;51.448;6.674;2024-03-02T05:49:34;14.10;47.50
33105;DHT22;19476;51.448;6.674;2024-03-02T05:52:00;14.00;47.50
33105;DHT22;19476;51.448;6.674;2024-03-02T05:54:26;14.00;47.50
33105;DHT22;19476;51.448;6.674;2024-03-02T05:56:52;14.00;47.50
33105;DHT22;19476;51.448;6.674;2024-03-02T05:59:17;14.00;47.50
33105;DHT22;19476;51.448;6.674;2024-03-02T06:01:47;14.00;47.50
33105;DHT22;19476;51.448;6.674;2024-03-02T06:04:13;13.90;47.50
33105;DHT22;19476;51.448;6.674;2024-03-02T06:06:40;13.90;47.50
33105;DHT22;19476;51.448;6.674;2024-03-02T06:09:06;13.90;47.30
33105;DHT22;19476;51.448;6.674;2024-03-02T06:11:36;13.80;47.40
33105;DHT22;19476;51.448;6.674;2024-03-02T06:14:03;13.80;47.40
33105;DHT22;19476;51.448;6.674;2024-03-02T06:16:29;13.80;47.50
33105;DHT22;19476;51.448;6.674;2024-03-02T06:18:55;13.80;47.40
33105;DHT22;19476;51.448;6.674;2024-03-02T06:21:24;13.70;47.40
33105;DHT22;19476;51.448;6.674;2024-03-02T06:23:49;13.70;47.60
33105;DHT22;19476;51.448;6.674;2024-03-02T06:26:15;13.70;47.80
33105;DHT22;19476;51.448;6.674;2024-03-02T06:28:41;13.70;47.80
33105;DHT22;19476;51.448;6.674;2024-03-02T06:31:07;13.70;47.80
33105;DHT22;19476;51.448;6.674;2024-03-02T06:33:32;13.70;47.80
33105;DHT22;19476;51.448;6.674;2024-03-02T06:35:58;13.70;47.80
33105;DHT22;19476;51.448;6.674;2024-03-02T06:38:24;13.70;47.80
33105;DHT22;19476;51.448;6.674;2024-03-02T06:40:49;13.70;47.80
33105;DHT22;19476;51.448;6.674;2024-03-02T06:43:15;13.70;47.80
33105;DHT22;19476;51.448;6.674;2024-03-02T06:45:41;13.60;47.80
33105;DHT22;19476;51.448;6.674;2024-03-02T06:48:07;13.60;47.80
33105;DHT22;19476;51.448;6.674;2024-03-02T06:50:32;13.60;47.90
33105;DHT22;19476;51.448;6.674;2024-03-02T06:52:58;13.60;47.90
33105;DHT22;19476;51.448;6.674;2024-03-02T06:55:24;13.60;48.00
33105;DHT22;19476;51.448;6.674;2024-03-02T06:57:51;13.60;48.00
33105;DHT22;19476;51.448;6.674;2024-03-02T07:00:17;13.60;48.10
33105;DHT22;19476;51.448;6.674;2024-03-02T07:02:44;13.70;48.20
33105;DHT22;19476;51.448;6.674;2024-03-02T07:05:10;13.70;48.70
33105;DHT22;19476;51.448;6.674;2024-03-02T07:07:37;13.70;48.20
33105;DHT22;19476;51.448;6.674;2024-03-02T07:10:06;13.70;48.10
33105;DHT22;19476;51.448;6.674;2024-03-02T07:12:33;13.70;48.10
33105;DHT22;19476;51.448;6.674;2024-03-02T07:14:58;13.70;48.00
33105;DHT22;19476;51.448;6.674;2024-03-02T07:17:33;13.70;48.10
33105;DHT22;19476;51.448;6.674;2024-03-02T07:19:59;13.80;48.10
33105;DHT22;19476;51.448;6.674;2024-03-02T07:22:25;13.80;48.10
33105;DHT22;19476;51.448;6.674;2024-03-02T07:24:51;13.80;48.00
33105;DHT22;19476;51.448;6.674;2024-03-02T07:27:17;13.80;48.00
33105;DHT22;19476;51.448;6.674;2024-03-02T07:29:43;13.80;48.00
33105;DHT22;19476;51.448;6.674;2024-03-02T07:32:10;13.90;48.00
33105;DHT22;19476;51.448;6.674;2024-03-02T07:34:36;13.90;48.00
33105;DHT22;19476;51.448;6.674;2024-03-02T07:37:03;13.90;47.90
33105;DHT22;19476;51.448;6.674;2024-03-02T07:39:29;13.90;47.90
33105;DHT22;19476;51.448;6.674;2024-03-02T07:41:55;14.00;48.10
33105;DHT22;19476;51.448;6.674;2024-03-02T07:44:21;14.00;48.00
33105;DHT22;19476;51.448;6.674;2024-03-02T07:46:48;14.00;48.00
33105;DHT22;19476;51.448;6.674;2024-03-02T07:49:15;14.10;48.00
33105;DHT22;19476;51.448;6.674;2024-03-02T07:51:42;14.10;47.90
33105;DHT22;19476;51.448;6.674;2024-03-02T07:54:08;14.10;47.90
33105;DHT22;19476;51.448;6.674;2024-03-02T07:56:34;14.10;47.70
33105;DHT22;19476;51.448;6.674;2024-03-02T07:59:01;14.10;47.60
33105;DHT22;19476;51.448;6.674;2024-03-02T08:01:30;14.20;47.70
33105;DHT22;19476;51.448;6.674;2024-03-02T08:04:00;14.20;47.70
33105;DHT22;19476;51.448;6.674;2024-03-02T08:06:27;14.20;47.70
33105;DHT22;19476;51.448;6.674;2024-03-02T08:08:54;14.20;47.70
33105;DHT22;19476;51.448;6.674;2024-03-02T08:11:21;14.20;47.50
33105;DHT22;19476;51.448;6.674;2024-03-02T08:13:46;14.10;47.50
33105;DHT22;19476;51.448;6.674;2024-03-02T08:16:12;14.20;47.60
33105;DHT22;19476;51.448;6.674;2024-03-02T08:18:38;14.20;47.50
33105;DHT22;19476;51.448;6.674;2024-03-02T08:21:04;14.20;47.50
33105;DHT22;19476;51.448;6.674;2024-03-02T08:23:30;14.20;47.50
33105;DHT22;19476;51.448;6.674;2024-03-02T08:25:56;14.20;47.60
33105;DHT22;19476;51.448;6.674;2024-03-02T08:28:22;14.20;47.60
33105;DHT22;19476;51.448;6.674;2024-03-02T08:30:48;14.20;47.60
33105;DHT22;19476;51.448;6.674;2024-03-02T08:33:13;14.20;47.60
33105;DHT22;19476;51.448;6.674;2024-03-02T08:35:39;14.20;47.60
33105;DHT22;19476;51.448;6.674;2024-03-02T08:38:05;14.20;47.60
33105;DHT22;19476;51.448;6.674;2024-03-02T08:40:31;14.20;47.60
33105;DHT22;19476;51.448;6.674;2024-03-02T08:42:57;14.20;47.70
33105;DHT22;19476;51.448;6.674;2024-03-02T08:45:22;14.20;47.90
33105;DHT22;19476;51.448;6.674;2024-03-02T08:47:48;14.30;47.80
33105;DHT22;19476;51.448;6.674;2024-03-02T08:50:14;14.30;47.70
33105;DHT22;19476;51.448;6.674;2024-03-02T08:52:39;14.30;47.80
33105;DHT22;19476;51.448;6.674;2024-03-02T08:55:06;14.40;47.70
33105;DHT22;19476;51.448;6.674;2024-03-02T08:57:33;14.40;47.80
33105;DHT22;19476;51.448;6.674;2024-03-02T08:59:59;14.50;47.80
33105;DHT22;19476;51.448;6.674;2024-03-02T09:02:25;14.50;47.80
33105;DHT22;19476;51.448;6.674;2024-03-02T09:04:51;14.60;47.80
33105;DHT22;19476;51.448;6.674;2024-03-02T09:07:16;14.60;47.80
33105;DHT22;19476;51.448;6.674;2024-03-02T09:09:42;14.70;47.70
33105;DHT22;19476;51.448;6.674;2024-03-02T09:12:08;14.70;47.50
33105;DHT22;19476;51.448;6.674;2024-03-02T09:14:35;14.50;47.50
33105;DHT22;19476;51.448;6.674;2024-03-02T09:17:02;14.80;47.50
33105;DHT22;19476;51.448;6.674;2024-03-02T09:19:29;14.90;47.40
33105;DHT22;19476;51.448;6.674;2024-03-02T09:21:56;14.90;47.20
33105;DHT22;19476;51.448;6.674;2024-03-02T09:24:24;15.00;47.30
33105;DHT22;19476;51.448;6.674;2024-03-02T09:26:50;15.00;47.00
33105;DHT22;19476;51.448;6.674;2024-03-02T09:29:16;15.00;47.00
33105;DHT22;19476;51.448;6.674;2024-03-02T09:31:43;15.10;46.90
33105;DHT22;19476;51.448;6.674;2024-03-02T09:34:09;15.10;46.90
33105;DHT22;19476;51.448;6.674;2024-03-02T09:36:34;15.10;46.90
33105;DHT22;19476;51.448;6.674;2024-03-02T09:39:00;15.20;47.00
33105;DHT22;19476;51.448;6.674;2024-03-02T09:41:26;15.20;46.90
33105;DHT22;19476;51.448;6.674;2024-03-02T09:43:52;15.30;46.90
33105;DHT22;19476;51.448;6.674;2024-03-02T09:46:21;15.30;46.60
33105;DHT22;19476;51.448;6.674;2024-03-02T09:48:50;15.40;46.60
33105;DHT22;19476;51.448;6.674;2024-03-02T09:51:16;15.40;46.20
33105;DHT22;19476;51.448;6.674;2024-03-02T09:53:45;15.50;46.10
33105;DHT22;19476;51.448;6.674;2024-03-02T09:56:12;15.60;45.90
33105;DHT22;19476;51.448;6.674;2024-03-02T09:58:39;15.60;45.60
33105;DHT22;19476;51.448;6.674;2024-03-02T10:01:07;15.60;45.70
33105;DHT22;19476;51.448;6.674;2024-03-02T10:03:34;15.70;45.40
33105;DHT22;19476;51.448;6.674;2024-03-02T10:06:19;15.80;45.40
33105;DHT22;19476;51.448;6.674;2024-03-02T10:08:45;15.90;45.30
33105;DHT22;19476;51.448;6.674;2024-03-02T10:11:11;16.00;44.90
33105;DHT22;19476;51.448;6.674;2024-03-02T10:13:36;16.00;44.50
33105;DHT22;19476;51.448;6.674;2024-03-02T10:16:28;16.00;44.50
33105;DHT22;19476;51.448;6.674;2024-03-02T10:18:54;16.10;44.50
33105;DHT22;19476;51.448;6.674;2024-03-02T10:21:20;16.20;44.40
33105;DHT22;19476;51.448;6.674;2024-03-02T10:23:46;16.20;44.10
33105;DHT22;19476;51.448;6.674;2024-03-02T10:26:18;16.30;43.80
33105;DHT22;19476;51.448;6.674;2024-03-02T10:28:47;16.40;43.20
33105;DHT22;19476;51.448;6.674;2024-03-02T10:31:25;16.40;42.80
33105;DHT22;19476;51.448;6.674;2024-03-02T10:33:54;16.50;42.80
33105;DHT22;19476;51.448;6.674;2024-03-02T10:36:20;16.50;42.70
33105;DHT22;19476;51.448;6.674;2024-03-02T10:38:46;16.50;42.80
33105;DHT22;19476;51.448;6.674;2024-03-02T10:41:23;16.60;42.90
33105;DHT22;19476;51.448;6.674;2024-03-02T10:43:52;16.60;42.90
33105;DHT22;19476;51.448;6.674;2024-03-02T10:46:20;16.70;43.10
33105;DHT22;19476;51.448;6.674;2024-03-02T10:48:46;16.80;43.00
33105;DHT22;19476;51.448;6.674;2024-03-02T10:51:12;16.80;42.80
33105;DHT22;19476;51.448;6.674;2024-03-02T10:53:38;16.90;42.90
33105;DHT22;19476;51.448;6.674;2024-03-02T10:56:07;16.90;42.70
33105;DHT22;19476;51.448;6.674;2024-03-02T10:58:33;17.00;42.70
33105;DHT22;19476;51.448;6.674;2024-03-02T11:01:03;17.00;42.60
33105;DHT22;19476;51.448;6.674;2024-03-02T11:03:35;17.10;42.60
33105;DHT22;19476;51.448;6.674;2024-03-02T11:06:03;17.10;42.40
33105;DHT22;19476;51.448;6.674;2024-03-02T11:08:34;17.20;42.20
33105;DHT22;19476;51.448;6.674;2024-03-02T11:11:07;17.30;42.00
33105;DHT22;19476;51.448;6.674;2024-03-02T11:13:37;17.30;41.90
33105;DHT22;19476;51.448;6.674;2024-03-02T11:16:09;17.30;42.10
33105;DHT22;19476;51.448;6.674;2024-03-02T11:18:38;17.40;41.70
33105;DHT22;19476;51.448;6.674;2024-03-02T11:21:05;17.40;41.80
33105;DHT22;19476;51.448;6.674;2024-03-02T11:23:34;17.50;41.80
33105;DHT22;19476;51.448;6.674;2024-03-02T11:26:19;17.50;41.80
33105;DHT22;19476;51.448;6.674;2024-03-02T11:28:45;17.60;41.20
33105;DHT22;19476;51.448;6.674;2024-03-02T11:31:11;17.60;41.40
33105;DHT22;19476;51.448;6.674;2024-03-02T11:33:37;17.60;41.40
33105;DHT22;19476;51.448;6.674;2024-03-02T11:36:06;17.70;41.10
33105;DHT22;19476;51.448;6.674;2024-03-02T11:38:33;17.80;41.20
33105;DHT22;19476;51.448;6.674;2024-03-02T11:41:05;17.80;41.20
33105;DHT22;19476;51.448;6.674;2024-03-02T11:43:32;17.90;40.50
33105;DHT22;19476;51.448;6.674;2024-03-02T11:46:00;18.00;40.60
33105;DHT22;19476;51.448;6.674;2024-03-02T11:48:26;18.00;40.50
33105;DHT22;19476;51.448;6.674;2024-03-02T11:50:52;18.10;40.40
33105;DHT22;19476;51.448;6.674;2024-03-02T11:53:20;18.20;40.10
33105;DHT22;19476;51.448;6.674;2024-03-02T11:55:46;18.20;40.30
33105;DHT22;19476;51.448;6.674;2024-03-02T11:58:13;18.20;40.40
33105;DHT22;19476;51.448;6.674;2024-03-02T12:00:40;18.30;40.30
33105;DHT22;19476;51.448;6.674;2024-03-02T12:03:07;18.40;40.40
33105;DHT22;19476;51.448;6.674;2024-03-02T12:05:33;18.50;40.40
33105;DHT22;19476;51.448;6.674;2024-03-02T12:08:04;18.50;40.10
33105;DHT22;19476;51.448;6.674;2024-03-02T12:10:31;18.60;39.60
33105;DHT22;19476;51.448;6.674;2024-03-02T12:13:02;18.70;39.50
33105;DHT22;19476;51.448;6.674;2024-03-02T12:15:35;18.80;39.60
33105;DHT22;19476;51.448;6.674;2024-03-02T12:18:05;18.80;39.20
33105;DHT22;19476;51.448;6.674;2024-03-02T12:20:33;18.90;39.30
33105;DHT22;19476;51.448;6.674;2024-03-02T12:23:02;18.90;39.20
33105;DHT22;19476;51.448;6.674;2024-03-02T12:25:28;18.90;39.20
33105;DHT22;19476;51.448;6.674;2024-03-02T12:27:56;18.90;39.10
33105;DHT22;19476;51.448;6.674;2024-03-02T12:30:23;18.90;38.90
33105;DHT22;19476;51.448;6.674;2024-03-02T12:32:50;18.90;38.90
33105;DHT22;19476;51.448;6.674;2024-03-02T12:35:15;18.90;39.00
33105;DHT22;19476;51.448;6.674;2024-03-02T12:37:49;18.90;39.00
33105;DHT22;19476;51.448;6.674;2024-03-02T12:40:17;18.90;39.00
33105;DHT22;19476;51.448;6.674;2024-03-02T12:42:44;18.90;38.80
33105;DHT22;19476;51.448;6.674;2024-03-02T12:45:11;18.90;38.90
33105;DHT22;19476;51.448;6.674;2024-03-02T12:47:37;18.90;38.90
33105;DHT22;19476;51.448;6.674;2024-03-02T12:50:04;18.90;39.10
33105;DHT22;19476;51.448;6.674;2024-03-02T12:52:30;18.90;39.10
33105;DHT22;19476;51.448;6.674;2024-03-02T12:55:01;18.90;39.00
33105;DHT22;19476;51.448;6.674;2024-03-02T12:57:30;18.90;39.20
33105;DHT22;19476;51.448;6.674;2024-03-02T13:00:04;19.00;39.10
33105;DHT22;19476;51.448;6.674;2024-03-02T13:02:35;18.90;39.10
33105;DHT22;19476;51.448;6.674;2024-03-02T13:05:02;18.90;38.60
33105;DHT22;19476;51.448;6.674;2024-03-02T13:07:29;18.90;38.60
33105;DHT22;19476;51.448;6.674;2024-03-02T13:09:55;18.90;38.60
33105;DHT22;19476;51.448;6.674;2024-03-02T13:12:24;18.90;38.90
33105;DHT22;19476;51.448;6.674;2024-03-02T13:14:52;18.90;39.30
33105;DHT22;19476;51.448;6.674;2024-03-02T13:17:19;19.00;38.90
33105;DHT22;19476;51.448;6.674;2024-03-02T13:20:11;19.00;38.80
33105;DHT22;19476;51.448;6.674;2024-03-02T13:22:37;19.00;38.50
33105;DHT22;19476;51.448;6.674;2024-03-02T13:25:02;19.00;39.30
33105;DHT22;19476;51.448;6.674;2024-03-02T13:27:30;19.00;38.80
33105;DHT22;19476;51.448;6.674;2024-03-02T13:29:57;19.00;38.80
33105;DHT22;19476;51.448;6.674;2024-03-02T13:32:22;19.00;38.60
33105;DHT22;19476;51.448;6.674;2024-03-02T13:34:50;19.00;38.80
33105;DHT22;19476;51.448;6.674;2024-03-02T13:37:15;19.00;38.70
33105;DHT22;19476;51.448;6.674;2024-03-02T13:39:41;19.00;38.70
33105;DHT22;19476;51.448;6.674;2024-03-02T13:42:11;19.00;38.80
33105;DHT22;19476;51.448;6.674;2024-03-02T13:44:39;18.90;38.70
33105;DHT22;19476;51.448;6.674;2024-03-02T13:47:05;18.90;38.70
33105;DHT22;19476;51.448;6.674;2024-03-02T13:49:31;18.90;38.70
33105;DHT22;19476;51.448;6.674;2024-03-02T13:52:05;18.80;38.70
33105;DHT22;19476;51.448;6.674;2024-03-02T13:54:43;18.80;38.80
33105;DHT22;19476;51.448;6.674;2024-03-02T13:57:10;18.80;39.00
33105;DHT22;19476;51.448;6.674;2024-03-02T13:59:37;18.70;38.80
33105;DHT22;19476;51.448;6.674;2024-03-02T14:02:04;18.70;38.80
33105;DHT22;19476;51.448;6.674;2024-03-02T14:04:34;18.60;39.10
33105;DHT22;19476;51.448;6.674;2024-03-02T14:07:00;18.60;39.00
33105;DHT22;19476;51.448;6.674;2024-03-02T14:09:26;18.60;39.00
33105;DHT22;19476;51.448;6.674;2024-03-02T14:11:52;18.60;39.00
33105;DHT22;19476;51.448;6.674;2024-03-02T14:14:18;18.50;38.90
33105;DHT22;19476;51.448;6.674;2024-03-02T14:16:44;18.50;39.10
33105;DHT22;19476;51.448;6.674;2024-03-02T14:19:11;18.50;39.30
33105;DHT22;19476;51.448;6.674;2024-03-02T14:21:38;18.50;39.30
33105;DHT22;19476;51.448;6.674;2024-03-02T14:24:04;18.60;39.30
33105;DHT22;19476;51.448;6.674;2024-03-02T14:26:30;18.60;39.10
33105;DHT22;19476;51.448;6.674;2024-03-02T14:28:55;18.60;39.20
33105;DHT22;19476;51.448;6.674;2024-03-02T14:31:21;18.60;39.00
33105;DHT22;19476;51.448;6.674;2024-03-02T14:33:47;18.70;39.00
33105;DHT22;19476;51.448;6.674;2024-03-02T14:36:13;18.70;38.90
33105;DHT22;19476;51.448;6.674;2024-03-02T14:38:39;18.70;39.10
33105;DHT22;19476;51.448;6.674;2024-03-02T14:41:04;18.70;39.00
33105;DHT22;19476;51.448;6.674;2024-03-02T14:43:30;18.70;39.00
33105;DHT22;19476;51.448;6.674;2024-03-02T14:45:56;18.80;39.10
33105;DHT22;19476;51.448;6.674;2024-03-02T14:48:22;18.70;39.00
33105;DHT22;19476;51.448;6.674;2024-03-02T14:50:48;18.80;38.80
33105;DHT22;19476;51.448;6.674;2024-03-02T14:53:14;18.90;39.30
33105;DHT22;19476;51.448;6.674;2024-03-02T14:55:40;19.00;39.80
33105;DHT22;19476;51.448;6.674;2024-03-02T14:58:05;19.10;38.70
33105;DHT22;19476;51.448;6.674;2024-03-02T15:00:31;19.20;38.50
33105;DHT22;19476;51.448;6.674;2024-03-02T15:02:57;19.20;38.30
33105;DHT22;19476;51.448;6.674;2024-03-02T15:05:23;19.20;38.20
33105;DHT22;19476;51.448;6.674;2024-03-02T15:07:52;19.20;38.30
33105;DHT22;19476;51.448;6.674;2024-03-02T15:10:17;19.20;38.20
33105;DHT22;19476;51.448;6.674;2024-03-02T15:12:44;19.10;38.40
33105;DHT22;19476;51.448;6.674;2024-03-02T15:15:10;19.20;38.50
33105;DHT22;19476;51.448;6.674;2024-03-02T15:17:37;19.10;38.50
33105;DHT22;19476;51.448;6.674;2024-03-02T15:20:03;19.10;38.60
33105;DHT22;19476;51.448;6.674;2024-03-02T15:22:30;19.10;38.60
33105;DHT22;19476;51.448;6.674;2024-03-02T15:24:55;19.10;38.70
33105;DHT22;19476;51.448;6.674;2024-03-02T15:27:21;19.10;38.80
33105;DHT22;19476;51.448;6.674;2024-03-02T15:29:47;19.10;38.80
33105;DHT22;19476;51.448;6.674;2024-03-02T15:32:15;19.10;38.60
33105;DHT22;19476;51.448;6.674;2024-03-02T15:34:41;19.00;38.50
33105;DHT22;19476;51.448;6.674;2024-03-02T15:37:08;19.00;38.60
33105;DHT22;19476;51.448;6.674;2024-03-02T15:39:34;19.00;38.60
33105;DHT22;19476;51.448;6.674;2024-03-02T15:41:59;18.90;38.60
33105;DHT22;19476;51.448;6.674;2024-03-02T15:44:25;18.90;38.70